sensor_id;sensor_type;location;lat;lon;timestamp;P1;durP1;ratioP1;P2;durP2;ratioP2
74677;SDS011;67324;56.326;43.982;2023-02-12T00:01:01;7.85;;;4.88;;
74677;SDS011;67324;56.326;43.982;2023-02-12T00:03:27;7.18;;;4.80;;
74677;SDS011;67324;56.326;43.982;2023-02-12T00:05:53;7.30;;;4.88;;
74677;SDS011;67324;56.326;43.982;2023-02-12T00:08:19;7.68;;;5.03;;
74677;SDS011;67324;56.326;43.982;2023-02-12T00:10:45;6.20;;;4.60;;
74677;SDS011;67324;56.326;43.982;2023-02-12T00:13:11;7.53;;;5.15;;
74677;SDS011;67324;56.326;43.982;2023-02-12T00:15:55;6.13;;;4.47;;
74677;SDS011;67324;56.326;43.982;2023-02-12T00:18:21;6.22;;;4.57;;
74677;SDS011;67324;56.326;43.982;2023-02-12T00:20:47;7.30;;;4.85;;
74677;SDS011;67324;56.326;43.982;2023-02-12T00:23:12;6.57;;;5.07;;
74677;SDS011;67324;56.326;43.982;2023-02-12T00:25:41;7.35;;;4.70;;
74677;SDS011;67324;56.326;43.982;2023-02-12T00:28:07;6.40;;;4.78;;
74677;SDS011;67324;56.326;43.982;2023-02-12T00:30:33;8.32;;;4.97;;
74677;SDS011;67324;56.326;43.982;2023-02-12T00:32:59;7.95;;;4.80;;
74677;SDS011;67324;56.326;43.982;2023-02-12T00:35:25;9.70;;;5.22;;
74677;SDS011;67324;56.326;43.982;2023-02-12T00:37:51;6.47;;;4.82;;
74677;SDS011;67324;56.326;43.982;2023-02-12T00:40:17;7.78;;;5.22;;
74677;SDS011;67324;56.326;43.982;2023-02-12T00:42:43;7.30;;;5.13;;
74677;SDS011;67324;56.326;43.982;2023-02-12T00:45:09;8.02;;;5.80;;
74677;SDS011;67324;56.326;43.982;2023-02-12T00:47:35;7.45;;;4.82;;
74677;SDS011;67324;56.326;43.982;2023-02-12T00:50:01;7.95;;;5.03;;
74677;SDS011;67324;56.326;43.982;2023-02-12T00:52:28;8.50;;;4.82;;
74677;SDS011;67324;56.326;43.982;2023-02-12T00:54:54;7.55;;;5.25;;
74677;SDS011;67324;56.326;43.982;2023-02-12T00:57:19;8.02;;;5.60;;
74677;SDS011;67324;56.326;43.982;2023-02-12T00:59:45;8.82;;;5.40;;
74677;SDS011;67324;56.326;43.982;2023-02-12T01:02:12;6.93;;;5.22;;
74677;SDS011;67324;56.326;43.982;2023-02-12T01:04:38;6.97;;;4.93;;
74677;SDS011;67324;56.326;43.982;2023-02-12T01:07:04;7.63;;;5.53;;
74677;SDS011;67324;56.326;43.982;2023-02-12T01:09:30;7.75;;;5.07;;
74677;SDS011;67324;56.326;43.982;2023-02-12T01:11:56;6.80;;;5.30;;
74677;SDS011;67324;56.326;43.982;2023-02-12T01:14:22;9.35;;;5.25;;
74677;SDS011;67324;56.326;43.982;2023-02-12T01:16:47;8.30;;;5.35;;
74677;SDS011;67324;56.326;43.982;2023-02-12T01:19:32;8.40;;;5.40;;
74677;SDS011;67324;56.326;43.982;2023-02-12T01:21:58;8.05;;;5.30;;
74677;SDS011;67324;56.326;43.982;2023-02-12T01:24:23;8.32;;;5.78;;
74677;SDS011;67324;56.326;43.982;2023-02-12T01:26:49;7.65;;;5.30;;
74677;SDS011;67324;56.326;43.982;2023-02-12T01:29:15;7.25;;;5.43;;
74677;SDS011;67324;56.326;43.982;2023-02-12T01:31:41;8.90;;;6.15;;
74677;SDS011;67324;56.326;43.982;2023-02-12T01:34:08;8.73;;;5.55;;
74677;SDS011;67324;56.326;43.982;2023-02-12T01:36:37;7.47;;;5.50;;
74677;SDS011;67324;56.326;43.982;2023-02-12T01:39:04;8.00;;;5.35;;
74677;SDS011;67324;56.326;43.982;2023-02-12T01:41:32;7.22;;;5.13;;
74677;SDS011;67324;56.326;43.982;2023-02-12T01:46:41;8.27;;;5.75;;
74677;SDS011;67324;56.326;43.982;2023-02-12T01:49:11;7.03;;;5.32;;
74677;SDS011;67324;56.326;43.982;2023-02-12T01:52:06;7.70;;;5.80;;
74677;SDS011;67324;56.326;43.982;2023-02-12T01:54:38;8.85;;;6.30;;
74677;SDS011;67324;56.326;43.982;2023-02-12T01:57:05;8.68;;;6.10;;
74677;SDS011;67324;56.326;43.982;2023-02-12T01:59:34;6.85;;;5.22;;
74677;SDS011;67324;56.326;43.982;2023-02-12T02:02:02;9.13;;;6.03;;
74677;SDS011;67324;56.326;43.982;2023-02-12T02:04:30;7.88;;;6.03;;
74677;SDS011;67324;56.326;43.982;2023-02-12T02:07:03;8.98;;;6.50;;
74677;SDS011;67324;56.326;43.982;2023-02-12T02:09:32;8.80;;;5.55;;
74677;SDS011;67324;56.326;43.982;2023-02-12T02:12:00;8.50;;;5.97;;
74677;SDS011;67324;56.326;43.982;2023-02-12T02:14:45;9.80;;;5.60;;
74677;SDS011;67324;56.326;43.982;2023-02-12T02:25:54;8.85;;;6.25;;
74677;SDS011;67324;56.326;43.982;2023-02-12T02:28:01;9.02;;;6.00;;
74677;SDS011;67324;56.326;43.982;2023-02-12T02:30:33;7.00;;;5.28;;
74677;SDS011;67324;56.326;43.982;2023-02-12T02:33:23;8.10;;;5.55;;
74677;SDS011;67324;56.326;43.982;2023-02-12T02:44:02;9.80;;;6.28;;
74677;SDS011;67324;56.326;43.982;2023-02-12T02:46:39;10.77;;;7.00;;
74677;SDS011;67324;56.326;43.982;2023-02-12T02:49:31;8.35;;;6.05;;
74677;SDS011;67324;56.326;43.982;2023-02-12T02:52:02;8.32;;;5.93;;
74677;SDS011;67324;56.326;43.982;2023-02-12T02:54:35;9.32;;;6.00;;
74677;SDS011;67324;56.326;43.982;2023-02-12T02:57:07;8.20;;;6.22;;
74677;SDS011;67324;56.326;43.982;2023-02-12T02:59:42;10.03;;;6.47;;
74677;SDS011;67324;56.326;43.982;2023-02-12T03:02:34;7.60;;;6.10;;
74677;SDS011;67324;56.326;43.982;2023-02-12T03:05:23;9.15;;;6.18;;
74677;SDS011;67324;56.326;43.982;2023-02-12T03:08:11;8.68;;;5.97;;
74677;SDS011;67324;56.326;43.982;2023-02-12T03:13:23;10.77;;;6.00;;
74677;SDS011;67324;56.326;43.982;2023-02-12T03:19:16;9.02;;;6.35;;
74677;SDS011;67324;56.326;43.982;2023-02-12T03:21:51;8.60;;;6.07;;
74677;SDS011;67324;56.326;43.982;2023-02-12T03:24:32;8.65;;;5.90;;
74677;SDS011;67324;56.326;43.982;2023-02-12T03:38:33;8.65;;;6.30;;
74677;SDS011;67324;56.326;43.982;2023-02-12T03:40:48;8.95;;;6.43;;
74677;SDS011;67324;56.326;43.982;2023-02-12T03:46:14;8.68;;;6.00;;
74677;SDS011;67324;56.326;43.982;2023-02-12T03:51:46;9.00;;;6.38;;
74677;SDS011;67324;56.326;43.982;2023-02-12T03:54:13;7.55;;;5.82;;
74677;SDS011;67324;56.326;43.982;2023-02-12T03:56:45;9.18;;;6.25;;
74677;SDS011;67324;56.326;43.982;2023-02-12T03:59:17;8.13;;;5.83;;
74677;SDS011;67324;56.326;43.982;2023-02-12T04:01:44;9.27;;;6.30;;
74677;SDS011;67324;56.326;43.982;2023-02-12T04:04:11;8.98;;;6.20;;
74677;SDS011;67324;56.326;43.982;2023-02-12T04:06:39;8.35;;;6.20;;
74677;SDS011;67324;56.326;43.982;2023-02-12T04:09:09;9.63;;;6.32;;
74677;SDS011;67324;56.326;43.982;2023-02-12T04:14:42;9.25;;;6.18;;
74677;SDS011;67324;56.326;43.982;2023-02-12T04:31:53;9.65;;;6.35;;
74677;SDS011;67324;56.326;43.982;2023-02-12T04:34:52;8.27;;;6.28;;
74677;SDS011;67324;56.326;43.982;2023-02-12T04:40:29;8.30;;;5.80;;
74677;SDS011;67324;56.326;43.982;2023-02-12T04:42:56;8.98;;;6.45;;
74677;SDS011;67324;56.326;43.982;2023-02-12T04:45:29;10.32;;;6.90;;
74677;SDS011;67324;56.326;43.982;2023-02-12T04:47:57;8.98;;;6.45;;
74677;SDS011;67324;56.326;43.982;2023-02-12T04:50:24;8.27;;;6.10;;
74677;SDS011;67324;56.326;43.982;2023-02-12T04:52:50;8.38;;;6.10;;
74677;SDS011;67324;56.326;43.982;2023-02-12T04:55:16;7.45;;;6.05;;
74677;SDS011;67324;56.326;43.982;2023-02-12T04:57:42;8.25;;;6.20;;
74677;SDS011;67324;56.326;43.982;2023-02-12T05:00:27;8.13;;;6.32;;
74677;SDS011;67324;56.326;43.982;2023-02-12T05:02:52;7.80;;;5.85;;
74677;SDS011;67324;56.326;43.982;2023-02-12T05:05:18;7.13;;;6.10;;
74677;SDS011;67324;56.326;43.982;2023-02-12T05:07:44;9.80;;;6.30;;
74677;SDS011;67324;56.326;43.982;2023-02-12T05:10:10;7.57;;;6.10;;
74677;SDS011;67324;56.326;43.982;2023-02-12T05:12:36;8.88;;;6.47;;
74677;SDS011;67324;56.326;43.982;2023-02-12T05:15:02;9.57;;;6.25;;
74677;SDS011;67324;56.326;43.982;2023-02-12T05:17:46;8.20;;;6.50;;
74677;SDS011;67324;56.326;43.982;2023-02-12T05:20:12;8.57;;;6.15;;
74677;SDS011;67324;56.326;43.982;2023-02-12T05:22:39;9.48;;;6.57;;
74677;SDS011;67324;56.326;43.982;2023-02-12T05:25:05;9.15;;;6.13;;
74677;SDS011;67324;56.326;43.982;2023-02-12T05:27:31;8.52;;;6.25;;
74677;SDS011;67324;56.326;43.982;2023-02-12T05:29:56;9.48;;;6.38;;
74677;SDS011;67324;56.326;43.982;2023-02-12T05:32:23;9.45;;;6.95;;
74677;SDS011;67324;56.326;43.982;2023-02-12T05:34:49;7.60;;;6.00;;
74677;SDS011;67324;56.326;43.982;2023-02-12T05:37:15;8.95;;;6.07;;
74677;SDS011;67324;56.326;43.982;2023-02-12T05:39:41;9.43;;;6.75;;
74677;SDS011;67324;56.326;43.982;2023-02-12T05:42:06;7.93;;;6.20;;
74677;SDS011;67324;56.326;43.982;2023-02-12T05:44:32;8.23;;;6.10;;
74677;SDS011;67324;56.326;43.982;2023-02-12T05:46:58;9.68;;;6.75;;
74677;SDS011;67324;56.326;43.982;2023-02-12T05:49:24;8.27;;;5.95;;
74677;SDS011;67324;56.326;43.982;2023-02-12T05:51:50;9.27;;;6.40;;
74677;SDS011;67324;56.326;43.982;2023-02-12T05:54:15;9.43;;;6.85;;
74677;SDS011;67324;56.326;43.982;2023-02-12T05:56:42;8.82;;;6.30;;
74677;SDS011;67324;56.326;43.982;2023-02-12T05:59:12;8.30;;;6.22;;
74677;SDS011;67324;56.326;43.982;2023-02-12T06:01:42;8.25;;;6.25;;
74677;SDS011;67324;56.326;43.982;2023-02-12T06:04:12;8.35;;;6.63;;
74677;SDS011;67324;56.326;43.982;2023-02-12T06:06:39;9.50;;;6.63;;
74677;SDS011;67324;56.326;43.982;2023-02-12T06:09:06;8.15;;;6.43;;
74677;SDS011;67324;56.326;43.982;2023-02-12T06:11:33;8.45;;;6.63;;
74677;SDS011;67324;56.326;43.982;2023-02-12T06:14:05;8.70;;;6.20;;
74677;SDS011;67324;56.326;43.982;2023-02-12T06:16:33;9.07;;;6.38;;
74677;SDS011;67324;56.326;43.982;2023-02-12T06:19:00;9.25;;;6.35;;
74677;SDS011;67324;56.326;43.982;2023-02-12T06:21:46;7.95;;;6.28;;
74677;SDS011;67324;56.326;43.982;2023-02-12T06:24:13;10.00;;;6.80;;
74677;SDS011;67324;56.326;43.982;2023-02-12T06:26:39;9.13;;;6.25;;
74677;SDS011;67324;56.326;43.982;2023-02-12T06:29:05;8.30;;;6.32;;
74677;SDS011;67324;56.326;43.982;2023-02-12T06:31:32;8.77;;;6.75;;
74677;SDS011;67324;56.326;43.982;2023-02-12T06:34:00;10.55;;;6.55;;
74677;SDS011;67324;56.326;43.982;2023-02-12T06:36:28;9.13;;;6.47;;
74677;SDS011;67324;56.326;43.982;2023-02-12T06:38:54;7.55;;;5.78;;
74677;SDS011;67324;56.326;43.982;2023-02-12T06:41:21;8.15;;;6.05;;
74677;SDS011;67324;56.326;43.982;2023-02-12T06:43:47;8.98;;;6.70;;
74677;SDS011;67324;56.326;43.982;2023-02-12T06:46:14;9.23;;;6.53;;
74677;SDS011;67324;56.326;43.982;2023-02-12T06:48:40;9.00;;;6.20;;
74677;SDS011;67324;56.326;43.982;2023-02-12T06:51:10;10.13;;;6.38;;
74677;SDS011;67324;56.326;43.982;2023-02-12T06:53:37;7.95;;;6.28;;
74677;SDS011;67324;56.326;43.982;2023-02-12T06:56:04;8.65;;;6.65;;
74677;SDS011;67324;56.326;43.982;2023-02-12T06:58:31;9.25;;;6.57;;
74677;SDS011;67324;56.326;43.982;2023-02-12T07:01:06;9.45;;;6.28;;
74677;SDS011;67324;56.326;43.982;2023-02-12T07:03:40;8.73;;;6.88;;
74677;SDS011;67324;56.326;43.982;2023-02-12T07:06:06;7.93;;;6.45;;
74677;SDS011;67324;56.326;43.982;2023-02-12T07:08:33;9.38;;;6.32;;
74677;SDS011;67324;56.326;43.982;2023-02-12T07:10:59;9.38;;;6.65;;
74677;SDS011;67324;56.326;43.982;2023-02-12T07:13:43;7.80;;;5.85;;
74677;SDS011;67324;56.326;43.982;2023-02-12T07:16:11;8.80;;;6.22;;
74677;SDS011;67324;56.326;43.982;2023-02-12T07:18:39;9.77;;;6.75;;
74677;SDS011;67324;56.326;43.982;2023-02-12T07:21:05;9.35;;;6.55;;
74677;SDS011;67324;56.326;43.982;2023-02-12T07:23:32;8.65;;;6.55;;
74677;SDS011;67324;56.326;43.982;2023-02-12T07:26:00;9.27;;;7.47;;
74677;SDS011;67324;56.326;43.982;2023-02-12T07:28:27;8.98;;;6.53;;
74677;SDS011;67324;56.326;43.982;2023-02-12T07:30:58;9.57;;;6.78;;
74677;SDS011;67324;56.326;43.982;2023-02-12T07:33:44;8.65;;;6.30;;
74677;SDS011;67324;56.326;43.982;2023-02-12T07:36:30;9.75;;;6.68;;
74677;SDS011;67324;56.326;43.982;2023-02-12T07:38:57;8.48;;;6.60;;
74677;SDS011;67324;56.326;43.982;2023-02-12T07:41:25;8.88;;;6.65;;
74677;SDS011;67324;56.326;43.982;2023-02-12T07:44:00;10.00;;;7.00;;
74677;SDS011;67324;56.326;43.982;2023-02-12T07:46:32;8.43;;;6.20;;
74677;SDS011;67324;56.326;43.982;2023-02-12T07:49:00;10.00;;;6.88;;
74677;SDS011;67324;56.326;43.982;2023-02-12T07:51:32;8.68;;;6.57;;
74677;SDS011;67324;56.326;43.982;2023-02-12T07:53:59;9.15;;;6.85;;
74677;SDS011;67324;56.326;43.982;2023-02-12T07:56:27;9.20;;;6.82;;
74677;SDS011;67324;56.326;43.982;2023-02-12T07:58:55;9.27;;;7.03;;
74677;SDS011;67324;56.326;43.982;2023-02-12T08:04:11;8.52;;;6.60;;
74677;SDS011;67324;56.326;43.982;2023-02-12T08:06:43;9.00;;;6.78;;
74677;SDS011;67324;56.326;43.982;2023-02-12T08:09:11;9.60;;;7.10;;
74677;SDS011;67324;56.326;43.982;2023-02-12T08:11:39;9.07;;;6.55;;
74677;SDS011;67324;56.326;43.982;2023-02-12T08:14:06;8.63;;;7.03;;
74677;SDS011;67324;56.326;43.982;2023-02-12T08:16:34;7.93;;;6.63;;
74677;SDS011;67324;56.326;43.982;2023-02-12T08:19:02;9.02;;;7.20;;
74677;SDS011;67324;56.326;43.982;2023-02-12T08:21:28;10.45;;;7.45;;
74677;SDS011;67324;56.326;43.982;2023-02-12T08:23:55;10.32;;;7.40;;
74677;SDS011;67324;56.326;43.982;2023-02-12T08:26:23;9.70;;;6.82;;
74677;SDS011;67324;56.326;43.982;2023-02-12T08:29:14;9.20;;;7.13;;
74677;SDS011;67324;56.326;43.982;2023-02-12T08:31:41;8.85;;;6.60;;
74677;SDS011;67324;56.326;43.982;2023-02-12T08:34:17;10.02;;;7.22;;
74677;SDS011;67324;56.326;43.982;2023-02-12T08:36:44;9.82;;;7.45;;
74677;SDS011;67324;56.326;43.982;2023-02-12T08:39:12;8.35;;;6.40;;
74677;SDS011;67324;56.326;43.982;2023-02-12T08:41:38;10.45;;;7.60;;
74677;SDS011;67324;56.326;43.982;2023-02-12T08:44:07;9.02;;;6.93;;
74677;SDS011;67324;56.326;43.982;2023-02-12T08:46:34;9.63;;;7.03;;
74677;SDS011;67324;56.326;43.982;2023-02-12T08:49:06;8.60;;;6.50;;
74677;SDS011;67324;56.326;43.982;2023-02-12T08:54:04;10.07;;;6.90;;
74677;SDS011;67324;56.326;43.982;2023-02-12T08:56:32;10.55;;;7.10;;
74677;SDS011;67324;56.326;43.982;2023-02-12T08:58:59;9.82;;;6.90;;
74677;SDS011;67324;56.326;43.982;2023-02-12T09:01:29;9.88;;;6.70;;
74677;SDS011;67324;56.326;43.982;2023-02-12T09:03:57;9.32;;;7.05;;
74677;SDS011;67324;56.326;43.982;2023-02-12T09:06:24;9.93;;;7.30;;
74677;SDS011;67324;56.326;43.982;2023-02-12T09:08:51;10.48;;;7.57;;
74677;SDS011;67324;56.326;43.982;2023-02-12T09:11:19;9.60;;;7.20;;
74677;SDS011;67324;56.326;43.982;2023-02-12T09:14:00;9.85;;;7.80;;
74677;SDS011;67324;56.326;43.982;2023-02-12T09:16:28;10.80;;;7.53;;
74677;SDS011;67324;56.326;43.982;2023-02-12T09:18:56;9.57;;;7.07;;
74677;SDS011;67324;56.326;43.982;2023-02-12T09:21:22;8.63;;;6.70;;
74677;SDS011;67324;56.326;43.982;2023-02-12T09:23:48;10.65;;;7.47;;
74677;SDS011;67324;56.326;43.982;2023-02-12T09:26:15;9.20;;;6.90;;
74677;SDS011;67324;56.326;43.982;2023-02-12T09:28:46;10.88;;;7.45;;
74677;SDS011;67324;56.326;43.982;2023-02-12T09:31:15;10.27;;;7.20;;
74677;SDS011;67324;56.326;43.982;2023-02-12T09:33:42;8.80;;;7.25;;
74677;SDS011;67324;56.326;43.982;2023-02-12T09:36:27;10.02;;;6.78;;
74677;SDS011;67324;56.326;43.982;2023-02-12T09:38:54;9.57;;;6.78;;
74677;SDS011;67324;56.326;43.982;2023-02-12T09:41:31;10.13;;;7.50;;
74677;SDS011;67324;56.326;43.982;2023-02-12T09:46:58;9.88;;;7.43;;
74677;SDS011;67324;56.326;43.982;2023-02-12T09:49:37;10.70;;;7.75;;
74677;SDS011;67324;56.326;43.982;2023-02-12T09:52:24;9.20;;;7.10;;
74677;SDS011;67324;56.326;43.982;2023-02-12T09:54:52;9.15;;;7.35;;
74677;SDS011;67324;56.326;43.982;2023-02-12T09:57:20;9.18;;;7.22;;
74677;SDS011;67324;56.326;43.982;2023-02-12T10:00:15;9.45;;;7.03;;
74677;SDS011;67324;56.326;43.982;2023-02-12T10:02:46;8.77;;;6.80;;
74677;SDS011;67324;56.326;43.982;2023-02-12T10:05:24;10.27;;;7.90;;
74677;SDS011;67324;56.326;43.982;2023-02-12T10:26:49;9.38;;;7.25;;
74677;SDS011;67324;56.326;43.982;2023-02-12T10:29:24;9.35;;;6.82;;
74677;SDS011;67324;56.326;43.982;2023-02-12T10:31:57;10.32;;;7.53;;
74677;SDS011;67324;56.326;43.982;2023-02-12T10:34:25;10.48;;;7.35;;
74677;SDS011;67324;56.326;43.982;2023-02-12T10:37:00;9.50;;;7.10;;
74677;SDS011;67324;56.326;43.982;2023-02-12T10:39:34;10.88;;;7.47;;
74677;SDS011;67324;56.326;43.982;2023-02-12T10:42:38;11.35;;;7.88;;
74677;SDS011;67324;56.326;43.982;2023-02-12T10:45:13;11.07;;;7.45;;
74677;SDS011;67324;56.326;43.982;2023-02-12T10:47:43;9.57;;;7.22;;
74677;SDS011;67324;56.326;43.982;2023-02-12T10:50:23;9.93;;;7.45;;
74677;SDS011;67324;56.326;43.982;2023-02-12T10:53:20;11.82;;;7.57;;
74677;SDS011;67324;56.326;43.982;2023-02-12T10:56:18;10.48;;;7.47;;
74677;SDS011;67324;56.326;43.982;2023-02-12T11:01:22;11.27;;;7.97;;
74677;SDS011;67324;56.326;43.982;2023-02-12T11:06:56;11.40;;;8.07;;
74677;SDS011;67324;56.326;43.982;2023-02-12T11:11:55;9.48;;;7.63;;
74677;SDS011;67324;56.326;43.982;2023-02-12T11:14:22;9.50;;;6.97;;
74677;SDS011;67324;56.326;43.982;2023-02-12T11:16:52;10.90;;;8.02;;
74677;SDS011;67324;56.326;43.982;2023-02-12T11:19:22;11.30;;;8.18;;
74677;SDS011;67324;56.326;43.982;2023-02-12T11:21:50;9.85;;;7.13;;
74677;SDS011;67324;56.326;43.982;2023-02-12T11:24:32;9.85;;;7.25;;
74677;SDS011;67324;56.326;43.982;2023-02-12T11:29:41;10.40;;;7.93;;
74677;SDS011;67324;56.326;43.982;2023-02-12T11:32:09;9.57;;;7.55;;
74677;SDS011;67324;56.326;43.982;2023-02-12T11:34:40;11.35;;;7.55;;
74677;SDS011;67324;56.326;43.982;2023-02-12T11:37:16;9.82;;;7.40;;
74677;SDS011;67324;56.326;43.982;2023-02-12T11:39:45;9.95;;;7.57;;
74677;SDS011;67324;56.326;43.982;2023-02-12T11:42:20;9.45;;;7.28;;
74677;SDS011;67324;56.326;43.982;2023-02-12T11:44:52;9.93;;;7.55;;
74677;SDS011;67324;56.326;43.982;2023-02-12T11:47:28;10.30;;;7.13;;
74677;SDS011;67324;56.326;43.982;2023-02-12T11:52:33;11.07;;;7.25;;
74677;SDS011;67324;56.326;43.982;2023-02-12T12:00:43;9.48;;;7.50;;
74677;SDS011;67324;56.326;43.982;2023-02-12T12:05:47;10.57;;;7.65;;
74677;SDS011;67324;56.326;43.982;2023-02-12T12:08:34;11.55;;;8.10;;
74677;SDS011;67324;56.326;43.982;2023-02-12T12:13:49;11.63;;;8.18;;
74677;SDS011;67324;56.326;43.982;2023-02-12T12:19:32;11.73;;;7.82;;
74677;SDS011;67324;56.326;43.982;2023-02-12T12:27:42;10.05;;;7.55;;
74677;SDS011;67324;56.326;43.982;2023-02-12T12:53:03;10.38;;;7.72;;
74677;SDS011;67324;56.326;43.982;2023-02-12T12:58:24;10.07;;;7.72;;
74677;SDS011;67324;56.326;43.982;2023-02-12T13:22:29;11.77;;;8.02;;
74677;SDS011;67324;56.326;43.982;2023-02-12T13:25:04;10.38;;;8.15;;
74677;SDS011;67324;56.326;43.982;2023-02-12T13:27:43;10.65;;;8.07;;
74677;SDS011;67324;56.326;43.982;2023-02-12T13:33:02;10.88;;;8.05;;
74677;SDS011;67324;56.326;43.982;2023-02-12T13:35:40;10.75;;;8.05;;
74677;SDS011;67324;56.326;43.982;2023-02-12T13:38:14;11.00;;;7.82;;
74677;SDS011;67324;56.326;43.982;2023-02-12T13:40:45;11.80;;;8.30;;
74677;SDS011;67324;56.326;43.982;2023-02-12T13:45:52;11.18;;;8.27;;
74677;SDS011;67324;56.326;43.982;2023-02-12T13:48:43;10.82;;;8.18;;
74677;SDS011;67324;56.326;43.982;2023-02-12T13:51:28;10.68;;;8.20;;
74677;SDS011;67324;56.326;43.982;2023-02-12T13:56:59;10.25;;;7.82;;
74677;SDS011;67324;56.326;43.982;2023-02-12T14:01:59;11.52;;;8.38;;
74677;SDS011;67324;56.326;43.982;2023-02-12T14:07:12;11.73;;;8.20;;
74677;SDS011;67324;56.326;43.982;2023-02-12T14:09:46;11.85;;;8.50;;
74677;SDS011;67324;56.326;43.982;2023-02-12T14:12:34;11.18;;;8.38;;
74677;SDS011;67324;56.326;43.982;2023-02-12T14:27:49;11.23;;;8.43;;
74677;SDS011;67324;56.326;43.982;2023-02-12T14:35:35;10.98;;;7.90;;
74677;SDS011;67324;56.326;43.982;2023-02-12T14:41:02;10.68;;;8.02;;
74677;SDS011;67324;56.326;43.982;2023-02-12T14:49:41;10.98;;;8.32;;
74677;SDS011;67324;56.326;43.982;2023-02-12T14:52:18;10.50;;;8.30;;
74677;SDS011;67324;56.326;43.982;2023-02-12T14:54:55;11.98;;;8.68;;
74677;SDS011;67324;56.326;43.982;2023-02-12T14:57:35;10.88;;;8.05;;
74677;SDS011;67324;56.326;43.982;2023-02-12T15:02:41;11.65;;;8.55;;
74677;SDS011;67324;56.326;43.982;2023-02-12T15:05:20;11.50;;;8.25;;
74677;SDS011;67324;56.326;43.982;2023-02-12T15:07:49;10.45;;;8.13;;
74677;SDS011;67324;56.326;43.982;2023-02-12T15:10:31;11.23;;;8.50;;
74677;SDS011;67324;56.326;43.982;2023-02-12T15:13:46;12.68;;;9.20;;
74677;SDS011;67324;56.326;43.982;2023-02-12T15:23:42;10.68;;;8.25;;
74677;SDS011;67324;56.326;43.982;2023-02-12T15:26:13;10.40;;;8.30;;
74677;SDS011;67324;56.326;43.982;2023-02-12T15:28:45;11.13;;;8.55;;
74677;SDS011;67324;56.326;43.982;2023-02-12T15:31:16;11.45;;;8.07;;
74677;SDS011;67324;56.326;43.982;2023-02-12T15:33:48;10.00;;;7.68;;
74677;SDS011;67324;56.326;43.982;2023-02-12T15:36:19;10.57;;;8.38;;
74677;SDS011;67324;56.326;43.982;2023-02-12T15:39:05;10.10;;;8.55;;
74677;SDS011;67324;56.326;43.982;2023-02-12T15:41:37;10.45;;;8.38;;
74677;SDS011;67324;56.326;43.982;2023-02-12T15:44:24;10.38;;;7.93;;
74677;SDS011;67324;56.326;43.982;2023-02-12T15:49:42;10.88;;;8.32;;
74677;SDS011;67324;56.326;43.982;2023-02-12T15:52:16;10.80;;;8.13;;
74677;SDS011;67324;56.326;43.982;2023-02-12T15:54:46;10.75;;;8.02;;
74677;SDS011;67324;56.326;43.982;2023-02-12T15:57:17;12.95;;;8.25;;
74677;SDS011;67324;56.326;43.982;2023-02-12T15:59:50;11.10;;;8.03;;
74677;SDS011;67324;56.326;43.982;2023-02-12T16:02:19;12.90;;;8.82;;
74677;SDS011;67324;56.326;43.982;2023-02-12T16:04:51;9.95;;;7.95;;
74677;SDS011;67324;56.326;43.982;2023-02-12T16:07:17;9.75;;;7.80;;
74677;SDS011;67324;56.326;43.982;2023-02-12T16:09:44;12.23;;;8.43;;
74677;SDS011;67324;56.326;43.982;2023-02-12T16:12:11;10.30;;;7.90;;
74677;SDS011;67324;56.326;43.982;2023-02-12T16:14:41;12.70;;;8.90;;
74677;SDS011;67324;56.326;43.982;2023-02-12T16:19:57;12.27;;;8.27;;
74677;SDS011;67324;56.326;43.982;2023-02-12T16:22:30;11.50;;;8.65;;
74677;SDS011;67324;56.326;43.982;2023-02-12T16:24:57;13.40;;;8.65;;
74677;SDS011;67324;56.326;43.982;2023-02-12T16:27:29;10.00;;;8.20;;
74677;SDS011;67324;56.326;43.982;2023-02-12T16:29:58;13.00;;;8.55;;
74677;SDS011;67324;56.326;43.982;2023-02-12T16:32:47;10.43;;;8.20;;
74677;SDS011;67324;56.326;43.982;2023-02-12T16:37:40;10.48;;;8.35;;
74677;SDS011;67324;56.326;43.982;2023-02-12T16:42:54;9.93;;;7.80;;
74677;SDS011;67324;56.326;43.982;2023-02-12T16:47:58;11.73;;;8.60;;
74677;SDS011;67324;56.326;43.982;2023-02-12T16:50:32;10.90;;;8.32;;
74677;SDS011;67324;56.326;43.982;2023-02-12T16:53:04;11.20;;;8.18;;
74677;SDS011;67324;56.326;43.982;2023-02-12T16:55:33;9.57;;;8.02;;
74677;SDS011;67324;56.326;43.982;2023-02-12T16:58:00;12.20;;;8.85;;
74677;SDS011;67324;56.326;43.982;2023-02-12T17:00:26;10.95;;;8.52;;
74677;SDS011;67324;56.326;43.982;2023-02-12T17:02:53;11.43;;;8.40;;
74677;SDS011;67324;56.326;43.982;2023-02-12T17:05:20;10.85;;;8.05;;
74677;SDS011;67324;56.326;43.982;2023-02-12T17:07:48;11.50;;;8.40;;
74677;SDS011;67324;56.326;43.982;2023-02-12T17:10:14;12.50;;;8.98;;
74677;SDS011;67324;56.326;43.982;2023-02-12T17:12:50;10.88;;;8.45;;
74677;SDS011;67324;56.326;43.982;2023-02-12T17:15:27;12.15;;;8.52;;
74677;SDS011;67324;56.326;43.982;2023-02-12T17:17:57;10.90;;;8.38;;
74677;SDS011;67324;56.326;43.982;2023-02-12T17:20:22;10.93;;;8.38;;
74677;SDS011;67324;56.326;43.982;2023-02-12T17:22:52;12.18;;;8.70;;
74677;SDS011;67324;56.326;43.982;2023-02-12T17:25:19;11.00;;;8.30;;
74677;SDS011;67324;56.326;43.982;2023-02-12T17:27:47;10.48;;;7.85;;
74677;SDS011;67324;56.326;43.982;2023-02-12T17:30:14;11.73;;;8.40;;
74677;SDS011;67324;56.326;43.982;2023-02-12T17:32:41;11.60;;;8.45;;
74677;SDS011;67324;56.326;43.982;2023-02-12T17:35:07;10.85;;;8.02;;
74677;SDS011;67324;56.326;43.982;2023-02-12T17:37:33;11.48;;;8.40;;
74677;SDS011;67324;56.326;43.982;2023-02-12T17:39:59;10.93;;;8.38;;
74677;SDS011;67324;56.326;43.982;2023-02-12T17:42:25;12.00;;;8.35;;
74677;SDS011;67324;56.326;43.982;2023-02-12T17:44:51;10.52;;;8.13;;
74677;SDS011;67324;56.326;43.982;2023-02-12T17:47:17;11.07;;;8.23;;
74677;SDS011;67324;56.326;43.982;2023-02-12T17:49:43;10.40;;;7.97;;
74677;SDS011;67324;56.326;43.982;2023-02-12T17:52:09;10.70;;;8.25;;
74677;SDS011;67324;56.326;43.982;2023-02-12T17:54:35;12.85;;;8.30;;
74677;SDS011;67324;56.326;43.982;2023-02-12T17:57:01;10.40;;;7.85;;
74677;SDS011;67324;56.326;43.982;2023-02-12T17:59:27;11.68;;;8.63;;
74677;SDS011;67324;56.326;43.982;2023-02-12T18:01:54;12.43;;;8.50;;
74677;SDS011;67324;56.326;43.982;2023-02-12T18:04:20;11.27;;;8.38;;
74677;SDS011;67324;56.326;43.982;2023-02-12T18:06:46;10.68;;;8.27;;
74677;SDS011;67324;56.326;43.982;2023-02-12T18:09:12;12.02;;;8.57;;
74677;SDS011;67324;56.326;43.982;2023-02-12T18:11:38;12.65;;;8.38;;
74677;SDS011;67324;56.326;43.982;2023-02-12T18:14:06;11.95;;;8.60;;
74677;SDS011;67324;56.326;43.982;2023-02-12T18:16:33;11.15;;;8.10;;
74677;SDS011;67324;56.326;43.982;2023-02-12T18:19:00;10.32;;;8.23;;
74677;SDS011;67324;56.326;43.982;2023-02-12T18:21:28;12.40;;;8.30;;
74677;SDS011;67324;56.326;43.982;2023-02-12T18:23:54;11.70;;;8.43;;
74677;SDS011;67324;56.326;43.982;2023-02-12T18:26:21;11.10;;;8.48;;
74677;SDS011;67324;56.326;43.982;2023-02-12T18:28:47;11.73;;;8.35;;
74677;SDS011;67324;56.326;43.982;2023-02-12T18:31:14;12.25;;;8.48;;
74677;SDS011;67324;56.326;43.982;2023-02-12T18:33:40;11.32;;;8.25;;
74677;SDS011;67324;56.326;43.982;2023-02-12T18:36:07;11.07;;;8.32;;
74677;SDS011;67324;56.326;43.982;2023-02-12T18:38:36;10.55;;;8.48;;
74677;SDS011;67324;56.326;43.982;2023-02-12T18:41:22;10.00;;;8.15;;
74677;SDS011;67324;56.326;43.982;2023-02-12T18:43:50;11.02;;;8.13;;